createdAt,value
2023-04-21T00:00:02.408Z,30.73
2023-04-21T00:02:31.965Z,30.40
2023-04-21T00:05:02.526Z,30.60
2023-04-21T00:07:30.915Z,29.83
2023-04-21T00:10:00.684Z,30.63
2023-04-21T00:12:29.152Z,30.07
2023-04-21T00:14:57.321Z,30.67
2023-04-21T00:17:25.758Z,29.30
2023-04-21T00:19:54.723Z,30.47
2023-04-21T00:22:23.492Z,29.70
2023-04-21T00:24:52.112Z,29.13
2023-04-21T00:27:21.954Z,28.97
2023-04-21T00:29:50.299Z,29.70
2023-04-21T00:32:19.911Z,28.00
2023-04-21T00:34:48.826Z,28.20
2023-04-21T00:37:17.179Z,30.70
2023-04-21T00:39:45.695Z,30.67
2023-04-21T00:42:17.154Z,29.50
2023-04-21T00:44:47.333Z,29.83
2023-04-21T00:47:18.289Z,29.43
2023-04-21T00:49:47.331Z,29.93
2023-04-21T00:52:18.731Z,29.47
2023-04-21T00:54:47.794Z,30.57
2023-04-21T00:57:17.843Z,30.97
2023-04-21T00:59:47.874Z,30.57
2023-04-21T01:02:17.137Z,31.13
2023-04-21T01:04:47.371Z,30.10
2023-04-21T01:07:16.072Z,30.20
2023-04-21T01:09:44.423Z,29.73
2023-04-21T01:12:14.040Z,28.90
2023-04-21T01:14:44.615Z,29.30
2023-04-21T01:17:14.358Z,29.63
2023-04-21T01:19:44.198Z,28.63
2023-04-21T01:22:15.475Z,28.70
2023-04-21T01:24:45.668Z,27.97
2023-04-21T01:27:15.780Z,27.73
2023-04-21T01:29:46.959Z,28.50
2023-04-21T01:32:19.428Z,28.43
2023-04-21T01:34:48.322Z,28.40
2023-04-21T01:37:20.694Z,29.53
2023-04-21T01:39:52.410Z,28.13
2023-04-21T01:42:22.134Z,29.67
2023-04-21T01:44:53.860Z,29.57
2023-04-21T01:47:22.898Z,29.33
2023-04-21T01:49:51.827Z,30.03
2023-04-21T01:52:21.963Z,30.57
2023-04-21T01:54:50.757Z,30.73
2023-04-21T01:57:19.598Z,31.53
2023-04-21T01:59:48.494Z,30.57
2023-04-21T02:02:16.688Z,30.43
2023-04-21T02:04:44.869Z,28.97
2023-04-21T02:07:13.369Z,29.47
2023-04-21T02:09:46.048Z,29.93
2023-04-21T02:12:14.463Z,30.23
2023-04-21T02:14:42.818Z,29.33
2023-04-21T02:17:13.707Z,30.20
2023-04-21T02:19:43.635Z,29.37
2023-04-21T02:22:13.187Z,30.47
2023-04-21T02:24:43.745Z,29.97
2023-04-21T02:27:12.043Z,30.37
2023-04-21T02:29:40.383Z,31.60
2023-04-21T02:32:22.237Z,32.10
2023-04-21T02:34:53.514Z,31.37
2023-04-21T02:37:22.393Z,31.77
2023-04-21T02:39:52.546Z,31.57
2023-04-21T02:42:20.678Z,31.97
2023-04-21T02:44:49.113Z,32.10
2023-04-21T02:47:17.904Z,31.53
2023-04-21T02:49:46.408Z,32.83
2023-04-21T02:52:15.439Z,33.13
2023-04-21T02:54:43.893Z,32.27
2023-04-21T02:57:13.614Z,32.10
2023-04-21T02:59:43.179Z,33.03
2023-04-21T03:02:11.723Z,33.00
2023-04-21T03:04:40.095Z,33.30
2023-04-21T03:07:13.465Z,33.43
2023-04-21T03:09:42.171Z,32.10
2023-04-21T03:12:10.586Z,32.83
2023-04-21T03:14:40.612Z,32.27
2023-04-21T03:17:10.399Z,32.50
2023-04-21T03:19:38.654Z,32.03
2023-04-21T03:22:06.759Z,34.57
2023-04-21T03:24:35.213Z,33.43
2023-04-21T03:27:03.292Z,33.93
2023-04-21T03:29:31.837Z,32.13
2023-04-21T03:32:02.051Z,33.50
2023-04-21T03:34:30.556Z,33.20
2023-04-21T03:36:58.596Z,33.57
2023-04-21T03:39:27.300Z,33.43
2023-04-21T03:41:55.674Z,32.90
2023-04-21T03:44:27.166Z,33.17
2023-04-21T03:46:55.305Z,33.77
2023-04-21T03:49:25.090Z,32.53
2023-04-21T03:51:53.725Z,34.73
2023-04-21T03:54:22.166Z,32.40
2023-04-21T03:56:52.972Z,33.07
2023-04-21T03:59:21.810Z,32.27
2023-04-21T04:01:50.101Z,32.60
2023-04-21T04:04:18.857Z,33.43
2023-04-21T04:06:48.703Z,33.77
2023-04-21T04:09:20.154Z,33.67
2023-04-21T04:11:48.504Z,32.53
2023-04-21T04:14:16.648Z,31.17
2023-04-21T04:16:47.682Z,33.50
2023-04-21T04:19:16.347Z,33.63
2023-04-21T04:21:44.804Z,34.20
2023-04-21T04:24:16.073Z,32.90
2023-04-21T04:26:44.606Z,31.03
2023-04-21T04:29:14.095Z,33.00
2023-04-21T04:31:42.508Z,32.23
2023-04-21T04:34:11.568Z,30.30
2023-04-21T04:36:39.812Z,31.33
2023-04-21T04:39:09.661Z,30.33
2023-04-21T04:41:40.068Z,30.33
2023-04-21T04:44:09.272Z,31.33
2023-04-21T04:46:37.697Z,31.43
2023-04-21T04:49:06.509Z,31.30
2023-04-21T04:51:34.765Z,30.73
2023-04-21T04:54:02.918Z,32.53
2023-04-21T04:56:32.068Z,31.13
2023-04-21T04:59:01.961Z,30.87
2023-04-21T05:01:30.954Z,30.60
2023-04-21T05:03:59.789Z,32.40
2023-04-21T05:06:28.725Z,31.53
2023-04-21T05:08:56.769Z,31.80
2023-04-21T05:11:24.984Z,30.77
2023-04-21T05:13:53.140Z,31.73
2023-04-21T05:16:22.902Z,31.13
2023-04-21T05:18:54.157Z,32.30
2023-04-21T05:21:27.898Z,31.20
2023-04-21T05:23:56.421Z,32.30
2023-04-21T05:26:27.808Z,31.50
2023-04-21T05:28:57.230Z,31.63
2023-04-21T05:31:27.633Z,33.17
2023-04-21T05:33:56.331Z,32.63
2023-04-21T05:36:25.990Z,32.50
2023-04-21T05:38:55.387Z,32.07
2023-04-21T05:41:24.156Z,31.87
2023-04-21T05:43:53.612Z,32.67
2023-04-21T05:46:22.042Z,33.07
2023-04-21T05:48:51.898Z,33.87
2023-04-21T05:51:20.214Z,33.23
2023-04-21T05:53:49.363Z,33.67
2023-04-21T05:56:17.971Z,34.73
2023-04-21T05:58:46.139Z,38.50
2023-04-21T06:01:15.633Z,37.63
2023-04-21T06:03:43.967Z,34.43
2023-04-21T06:06:15.265Z,35.67
2023-04-21T06:08:43.866Z,35.20
2023-04-21T06:11:12.024Z,31.57
2023-04-21T06:13:41.711Z,32.27
2023-04-21T06:16:11.878Z,31.53
2023-04-21T06:18:40.260Z,33.17
2023-04-21T06:21:11.504Z,32.67
2023-04-21T06:23:42.731Z,32.30
2023-04-21T06:26:11.138Z,32.63
2023-04-21T06:28:42.017Z,31.80
2023-04-21T06:31:15.365Z,32.10
2023-04-21T06:33:43.718Z,32.27
2023-04-21T06:36:12.250Z,34.70
2023-04-21T06:38:43.408Z,33.67
2023-04-21T06:41:11.791Z,30.47
2023-04-21T06:43:39.900Z,31.83
2023-04-21T06:46:08.077Z,31.40
2023-04-21T06:48:38.430Z,31.53
2023-04-21T06:51:06.889Z,32.80
2023-04-21T06:53:35.145Z,32.90
2023-04-21T06:56:05.075Z,32.80
2023-04-21T06:58:33.264Z,34.50
2023-04-21T07:01:02.133Z,31.97
2023-04-21T07:03:30.293Z,31.53
2023-04-21T07:05:58.866Z,30.60
2023-04-21T07:08:27.318Z,32.00
2023-04-21T07:10:55.635Z,31.17
2023-04-21T07:13:25.518Z,31.20
2023-04-21T07:15:54.170Z,31.60
2023-04-21T07:18:22.183Z,31.23
2023-04-21T07:20:51.214Z,31.37
2023-04-21T07:23:19.421Z,31.83
2023-04-21T07:25:47.780Z,30.63
2023-04-21T07:28:16.372Z,30.13
2023-04-21T07:30:47.488Z,30.37
2023-04-21T07:33:15.896Z,29.47
2023-04-21T07:35:44.655Z,27.97
2023-04-21T07:38:12.817Z,29.60
2023-04-21T07:40:41.323Z,30.60
2023-04-21T07:43:09.415Z,27.80
2023-04-21T07:45:37.839Z,28.70
2023-04-21T07:48:09.747Z,28.17
2023-04-21T07:50:38.441Z,27.20
2023-04-21T07:53:06.542Z,27.93
2023-04-21T07:55:34.911Z,27.23
2023-04-21T07:58:05.176Z,27.83
2023-04-21T08:00:33.340Z,28.03
2023-04-21T08:03:01.818Z,28.97
2023-04-21T08:05:36.678Z,27.77
2023-04-21T08:08:07.705Z,26.43
2023-04-21T08:10:36.248Z,25.83
2023-04-21T08:13:06.561Z,24.87
2023-04-21T08:15:35.528Z,25.20
2023-04-21T08:18:05.074Z,24.17
2023-04-21T08:20:35.208Z,23.30
2023-04-21T08:23:04.584Z,26.87
2023-04-21T08:25:33.836Z,28.27
2023-04-21T08:28:02.730Z,24.53
2023-04-21T08:30:31.243Z,22.67
2023-04-21T08:32:59.675Z,23.67
2023-04-21T08:35:27.783Z,22.97
2023-04-21T08:37:57.508Z,20.23
2023-04-21T08:40:31.222Z,20.73
2023-04-21T08:42:59.584Z,19.93
2023-04-21T08:45:29.716Z,20.70
2023-04-21T08:48:00.403Z,21.30
2023-04-21T08:50:30.725Z,20.80
2023-04-21T08:53:00.590Z,20.83
2023-04-21T08:55:31.475Z,25.13
2023-04-21T08:58:00.251Z,25.80
2023-04-21T09:00:28.977Z,21.00
2023-04-21T09:03:01.255Z,21.27
2023-04-21T09:05:32.075Z,20.83
2023-04-21T09:08:11.760Z,18.97
2023-04-21T09:10:47.115Z,19.17
2023-04-21T09:13:16.338Z,18.70
2023-04-21T09:15:48.119Z,19.33
2023-04-21T09:18:17.942Z,18.10
2023-04-21T09:20:48.234Z,17.80
2023-04-21T09:23:18.600Z,17.47
2023-04-21T09:25:47.470Z,18.13
2023-04-21T09:28:16.616Z,17.73
2023-04-21T09:30:45.262Z,16.83
2023-04-21T09:33:28.871Z,16.70
2023-04-21T09:36:03.032Z,17.50
2023-04-21T09:38:33.969Z,16.73
2023-04-21T09:41:02.660Z,16.73
2023-04-21T09:43:32.248Z,16.20
2023-04-21T09:46:03.955Z,16.53
2023-04-21T09:48:35.922Z,17.23
2023-04-21T09:51:22.780Z,15.90
2023-04-21T09:53:59.736Z,15.90
2023-04-21T09:56:31.889Z,16.37
2023-04-21T09:59:02.983Z,16.00
2023-04-21T10:01:32.274Z,15.73
2023-04-21T10:04:01.263Z,16.43
2023-04-21T10:06:30.216Z,16.23
2023-04-21T10:09:00.442Z,16.00
2023-04-21T10:11:28.738Z,15.30
2023-04-21T10:13:56.837Z,16.03
2023-04-21T10:16:26.776Z,16.13
2023-04-21T10:18:55.008Z,15.40
2023-04-21T10:21:24.625Z,15.97
2023-04-21T10:23:54.858Z,16.00
2023-04-21T10:26:27.418Z,15.47
2023-04-21T10:28:57.711Z,15.23
2023-04-21T10:31:31.839Z,15.60
2023-04-21T10:34:30.656Z,14.77
2023-04-21T10:37:15.718Z,14.70
2023-04-21T10:39:57.428Z,15.10
2023-04-21T10:42:37.266Z,14.97
2023-04-21T10:45:11.929Z,14.53
2023-04-21T10:47:49.406Z,14.73
2023-04-21T10:50:26.046Z,20.27
2023-04-21T10:52:57.391Z,14.93
2023-04-21T10:55:31.483Z,35.23
2023-04-21T10:58:06.541Z,20.73
2023-04-21T11:00:34.894Z,15.33
2023-04-21T11:03:05.470Z,15.93
2023-04-21T11:05:40.723Z,15.13
2023-04-21T11:08:11.537Z,18.93
2023-04-21T11:11:00.642Z,15.00
2023-04-21T11:13:33.912Z,15.67
2023-04-21T11:16:07.673Z,14.33
2023-04-21T11:18:40.654Z,14.17
2023-04-21T11:21:16.165Z,14.70
2023-04-21T11:23:50.256Z,14.37
2023-04-21T11:26:20.242Z,14.63
2023-04-21T11:28:52.640Z,14.37
2023-04-21T11:31:21.079Z,13.33
2023-04-21T11:33:49.962Z,15.50
2023-04-21T11:36:18.156Z,14.23
2023-04-21T11:38:46.660Z,12.87
2023-04-21T11:41:22.405Z,13.20
2023-04-21T11:43:52.357Z,12.83
2023-04-21T11:46:25.937Z,13.37
2023-04-21T11:49:01.779Z,12.50
2023-04-21T11:51:35.518Z,12.87
2023-04-21T11:54:05.954Z,11.57
2023-04-21T11:56:37.660Z,12.13
2023-04-21T11:59:12.909Z,13.03
2023-04-21T12:01:44.878Z,12.57
2023-04-21T12:04:16.540Z,13.77
2023-04-21T12:06:45.885Z,18.37
2023-04-21T12:09:20.284Z,13.67
2023-04-21T12:11:50.312Z,12.17
2023-04-21T12:14:21.414Z,13.70
2023-04-21T12:16:51.550Z,12.63
2023-04-21T12:19:36.301Z,18.23
2023-04-21T12:22:09.222Z,15.67
2023-04-21T12:24:37.560Z,14.37
2023-04-21T12:27:07.081Z,12.70
2023-04-21T12:29:38.086Z,14.80
2023-04-21T12:32:06.852Z,13.27
2023-04-21T12:34:35.498Z,16.73
2023-04-21T12:37:04.601Z,15.57
2023-04-21T12:39:33.242Z,14.20
2023-04-21T12:42:01.757Z,13.73
2023-04-21T12:44:30.282Z,12.73
2023-04-21T12:47:00.327Z,12.30
2023-04-21T12:49:29.054Z,11.83
2023-04-21T12:51:57.529Z,12.80
2023-04-21T12:54:25.949Z,12.53
2023-04-21T12:56:54.090Z,12.13
2023-04-21T12:59:22.545Z,13.80
2023-04-21T13:01:52.136Z,11.37
2023-04-21T13:04:23.097Z,12.20
2023-04-21T13:06:51.663Z,11.40
2023-04-21T13:09:20.111Z,11.10
2023-04-21T13:11:48.361Z,10.50
2023-04-21T13:14:18.110Z,9.90
2023-04-21T13:16:46.615Z,11.83
2023-04-21T13:19:15.317Z,11.43
2023-04-21T13:21:45.546Z,11.40
2023-04-21T13:24:14.912Z,9.83
2023-04-21T13:26:44.199Z,10.73
2023-04-21T13:29:12.311Z,10.67
2023-04-21T13:31:40.965Z,10.03
2023-04-21T13:34:09.100Z,9.40
2023-04-21T13:36:37.594Z,9.83
2023-04-21T13:39:10.885Z,10.23
2023-04-21T13:41:39.017Z,10.47
2023-04-21T13:44:07.166Z,10.50
2023-04-21T13:46:35.340Z,10.27
2023-04-21T13:49:03.884Z,9.10
2023-04-21T13:51:32.489Z,9.10
2023-04-21T13:54:01.089Z,11.33
2023-04-21T13:56:30.604Z,9.23
2023-04-21T13:58:59.601Z,9.57
2023-04-21T14:01:27.805Z,9.63
2023-04-21T14:03:57.620Z,10.37
2023-04-21T14:06:27.480Z,11.10
2023-04-21T14:08:56.126Z,10.63
2023-04-21T14:11:24.517Z,10.60
2023-04-21T14:14:09.000Z,9.83
2023-04-21T14:16:37.753Z,9.97
2023-04-21T14:19:06.343Z,9.60
2023-04-21T14:21:34.851Z,9.30
2023-04-21T14:24:03.296Z,9.50
2023-04-21T14:26:32.036Z,9.33
2023-04-21T14:29:03.189Z,8.87
2023-04-21T14:31:32.355Z,9.03
2023-04-21T14:34:00.758Z,9.40
2023-04-21T14:36:28.939Z,9.00
2023-04-21T14:38:57.084Z,9.68
2023-04-21T14:41:25.338Z,8.67
2023-04-21T14:43:56.700Z,8.87
2023-04-21T14:46:26.677Z,8.87
2023-04-21T14:48:56.388Z,8.17
2023-04-21T14:51:24.621Z,9.25
2023-04-21T14:53:52.748Z,9.17
2023-04-21T14:56:20.829Z,8.13
2023-04-21T14:58:48.971Z,8.32
2023-04-21T15:01:17.276Z,8.85
2023-04-21T15:03:47.199Z,8.65
2023-04-21T15:06:16.291Z,8.38
2023-04-21T15:08:46.643Z,8.73
2023-04-21T15:11:15.489Z,10.65
2023-04-21T15:13:43.711Z,9.53
2023-04-21T15:16:11.929Z,7.53
2023-04-21T15:18:40.115Z,8.00
2023-04-21T15:21:09.633Z,8.57
2023-04-21T15:23:38.061Z,7.75
2023-04-21T15:26:06.431Z,7.78
2023-04-21T15:28:36.114Z,7.75
2023-04-21T15:31:04.297Z,8.35
2023-04-21T15:33:32.992Z,7.63
2023-04-21T15:36:01.161Z,7.78
2023-04-21T15:38:30.782Z,7.38
2023-04-21T15:41:00.771Z,7.03
2023-04-21T15:43:35.229Z,6.88
2023-04-21T15:46:03.368Z,7.40
2023-04-21T15:48:31.684Z,7.70
2023-04-21T15:50:59.803Z,8.90
2023-04-21T15:53:28.382Z,8.18
2023-04-21T15:55:57.832Z,8.65
2023-04-21T15:58:26.531Z,8.63
2023-04-21T16:00:54.794Z,7.95
2023-04-21T16:03:23.155Z,7.57
2023-04-21T16:05:51.556Z,8.20
2023-04-21T16:08:19.890Z,7.85
2023-04-21T16:10:48.223Z,8.45
2023-04-21T16:13:17.912Z,8.30
2023-04-21T16:15:46.241Z,7.80
2023-04-21T16:18:14.428Z,7.40
2023-04-21T16:20:44.128Z,8.15
2023-04-21T16:23:12.232Z,7.75
2023-04-21T16:25:40.762Z,7.40
2023-04-21T16:28:11.611Z,7.10
2023-04-21T16:30:43.957Z,6.88
2023-04-21T16:33:13.286Z,7.35
2023-04-21T16:35:44.585Z,7.53
2023-04-21T16:38:13.116Z,7.50
2023-04-21T16:40:41.229Z,7.40
2023-04-21T16:43:09.618Z,7.45
2023-04-21T16:45:38.200Z,6.90
2023-04-21T16:48:08.375Z,7.07
2023-04-21T16:50:36.684Z,7.30
2023-04-21T16:53:04.792Z,6.63
2023-04-21T16:55:32.819Z,6.68
2023-04-21T16:58:01.000Z,7.25
2023-04-21T17:00:30.428Z,7.00
2023-04-21T17:02:58.849Z,7.05
2023-04-21T17:05:28.730Z,7.40
2023-04-21T17:07:56.884Z,6.78
2023-04-21T17:10:27.114Z,6.57
2023-04-21T17:12:55.271Z,6.50
2023-04-21T17:15:23.734Z,5.88
2023-04-21T17:17:51.986Z,7.15
2023-04-21T17:20:20.182Z,7.28
2023-04-21T17:22:50.122Z,6.90
2023-04-21T17:25:18.270Z,6.30
2023-04-21T17:27:46.629Z,6.28
2023-04-21T17:30:17.128Z,6.60
2023-04-21T17:32:45.400Z,6.93
2023-04-21T17:35:13.611Z,7.38
2023-04-21T17:37:44.374Z,7.38
2023-04-21T17:40:14.752Z,7.35
2023-04-21T17:42:43.186Z,7.05
2023-04-21T17:45:12.189Z,6.95
2023-04-21T17:47:40.893Z,7.18
2023-04-21T17:50:11.852Z,7.00
2023-04-21T17:52:40.406Z,7.28
2023-04-21T17:55:09.394Z,7.50
2023-04-21T17:57:40.247Z,7.70
2023-04-21T18:00:11.614Z,7.40
2023-04-21T18:02:39.991Z,7.40
2023-04-21T18:05:09.500Z,7.25
2023-04-21T18:07:37.931Z,7.80
2023-04-21T18:10:07.276Z,6.90
2023-04-21T18:12:35.844Z,8.13
2023-04-21T18:15:07.662Z,7.43
2023-04-21T18:17:37.283Z,7.27
2023-04-21T18:20:06.371Z,6.47
2023-04-21T18:22:35.671Z,6.67
2023-04-21T18:25:04.269Z,6.63
2023-04-21T18:27:32.444Z,7.47
2023-04-21T18:30:00.839Z,6.90
2023-04-21T18:32:33.819Z,7.23
2023-04-21T18:35:02.455Z,6.90
2023-04-21T18:37:32.315Z,7.30
2023-04-21T18:40:00.960Z,7.47
2023-04-21T18:42:29.452Z,7.73
2023-04-21T18:44:58.693Z,7.70
2023-04-21T18:47:28.032Z,7.90
2023-04-21T18:50:00.358Z,8.90
2023-04-21T18:52:28.748Z,8.57
2023-04-21T18:54:56.934Z,9.87
2023-04-21T18:57:25.956Z,9.87
2023-04-21T18:59:54.791Z,9.47
2023-04-21T19:02:23.097Z,9.30
2023-04-21T19:04:51.569Z,9.27
2023-04-21T19:07:22.149Z,9.73
2023-04-21T19:09:52.364Z,9.33
2023-04-21T19:12:21.959Z,9.30
2023-04-21T19:14:50.945Z,9.40
2023-04-21T19:17:19.349Z,10.00
2023-04-21T19:19:47.648Z,9.27
2023-04-21T19:22:16.080Z,9.17
2023-04-21T19:24:45.692Z,8.63
2023-04-21T19:27:14.387Z,9.13
2023-04-21T19:29:43.017Z,10.03
2023-04-21T19:32:11.374Z,10.03
2023-04-21T19:34:40.113Z,10.67
2023-04-21T19:37:08.962Z,11.50
2023-04-21T19:39:37.238Z,10.03
2023-04-21T19:42:07.071Z,10.83
2023-04-21T19:44:35.779Z,10.60
2023-04-21T19:47:04.683Z,9.83
2023-04-21T19:49:32.954Z,11.17
2023-04-21T19:52:01.396Z,11.07
2023-04-21T19:54:29.743Z,11.20
2023-04-21T19:56:58.077Z,11.73
2023-04-21T19:59:27.905Z,12.17
2023-04-21T20:01:56.108Z,12.10
2023-04-21T20:04:24.520Z,11.37
2023-04-21T20:06:52.927Z,10.13
2023-04-21T20:09:21.060Z,10.13
2023-04-21T20:11:49.550Z,9.60
2023-04-21T20:14:19.395Z,10.07
2023-04-21T20:16:50.275Z,10.00
2023-04-21T20:19:18.481Z,10.67
2023-04-21T20:21:46.593Z,11.03
2023-04-21T20:24:14.796Z,10.50
2023-04-21T20:26:42.948Z,10.70
2023-04-21T20:29:11.249Z,10.50
2023-04-21T20:31:41.689Z,13.00
2023-04-21T20:34:12.124Z,11.83
2023-04-21T20:36:41.793Z,11.67
2023-04-21T20:39:10.118Z,10.43
2023-04-21T20:41:39.099Z,10.77
2023-04-21T20:44:07.387Z,10.83
2023-04-21T20:46:35.634Z,10.40
2023-04-21T20:49:04.599Z,10.70
2023-04-21T20:51:34.458Z,9.80
2023-04-21T20:54:02.653Z,10.80
2023-04-21T20:56:32.315Z,10.53
2023-04-21T20:59:00.739Z,11.00
2023-04-21T21:01:30.656Z,11.43
2023-04-21T21:04:01.375Z,13.17
2023-04-21T21:06:30.217Z,13.93
2023-04-21T21:09:01.103Z,12.27
2023-04-21T21:11:29.557Z,12.33
2023-04-21T21:13:58.823Z,13.43
2023-04-21T21:16:27.314Z,13.03
2023-04-21T21:18:55.418Z,12.83
2023-04-21T21:21:23.787Z,12.97
2023-04-21T21:23:52.196Z,13.40
2023-04-21T21:26:22.495Z,13.47
2023-04-21T21:28:50.889Z,13.13
2023-04-21T21:31:19.209Z,13.93
2023-04-21T21:33:47.359Z,13.90
2023-04-21T21:36:15.770Z,14.43
2023-04-21T21:38:44.094Z,12.63
2023-04-21T21:41:12.877Z,12.30
2023-04-21T21:43:42.513Z,13.33
2023-04-21T21:46:13.665Z,12.77
2023-04-21T21:48:42.716Z,13.03
2023-04-21T21:51:11.264Z,12.33
2023-04-21T21:53:39.499Z,12.17
2023-04-21T21:56:07.961Z,14.93
2023-04-21T21:58:36.400Z,12.93
2023-04-21T22:01:06.954Z,12.37
2023-04-21T22:03:36.328Z,12.93
2023-04-21T22:06:05.326Z,12.30
2023-04-21T22:08:33.660Z,12.33
2023-04-21T22:11:06.031Z,12.80
2023-04-21T22:13:34.147Z,13.37
2023-04-21T22:16:02.981Z,12.73
2023-04-21T22:18:32.804Z,12.43
2023-04-21T22:21:01.446Z,12.53
2023-04-21T22:23:29.822Z,12.90
2023-04-21T22:25:58.027Z,13.37
2023-04-21T22:28:26.367Z,12.90
2023-04-21T22:30:54.532Z,12.80
2023-04-21T22:33:24.354Z,12.30
2023-04-21T22:35:54.482Z,13.13
2023-04-21T22:38:22.601Z,11.90
2023-04-21T22:40:50.658Z,12.40
2023-04-21T22:43:21.191Z,13.13
2023-04-21T22:45:51.879Z,14.97
2023-04-21T22:48:20.131Z,12.97
2023-04-21T22:50:48.204Z,12.53
2023-04-21T22:53:18.058Z,13.67
2023-04-21T22:55:46.308Z,12.00
2023-04-21T22:58:15.740Z,12.17
2023-04-21T23:00:45.239Z,12.90
2023-04-21T23:03:13.651Z,11.80
2023-04-21T23:05:42.487Z,11.70
2023-04-21T23:08:10.712Z,12.07
2023-04-21T23:10:40.692Z,13.63
2023-04-21T23:13:08.740Z,13.57
2023-04-21T23:15:37.189Z,13.60
2023-04-21T23:18:05.586Z,13.17
2023-04-21T23:20:34.006Z,13.13
2023-04-21T23:23:03.307Z,11.13
2023-04-21T23:25:32.051Z,10.67
2023-04-21T23:28:02.575Z,10.67
2023-04-21T23:30:30.909Z,12.00
2023-04-21T23:32:59.538Z,11.83
2023-04-21T23:35:29.217Z,12.10
2023-04-21T23:37:57.519Z,12.93
2023-04-21T23:40:26.215Z,13.00
2023-04-21T23:42:54.627Z,14.33
2023-04-21T23:45:24.160Z,15.80
2023-04-21T23:47:52.710Z,14.20
2023-04-21T23:50:21.013Z,13.53
2023-04-21T23:52:51.098Z,13.03
2023-04-21T23:55:19.646Z,11.57
2023-04-21T23:57:48.014Z,12.47
